sensor_id;sensor_type;location;lat;lon;timestamp;P1;durP1;ratioP1;P2;durP2;ratioP2
23290;SDS011;11814;44.686;10.842;2024-03-08T00:01:15;27.70;;;15.40;;
23290;SDS011;11814;44.686;10.842;2024-03-08T00:03:41;28.58;;;15.35;;
23290;SDS011;11814;44.686;10.842;2024-03-08T00:06:07;22.90;;;15.27;;
23290;SDS011;11814;44.686;10.842;2024-03-08T00:08:33;26.30;;;14.65;;
23290;SDS011;11814;44.686;10.842;2024-03-08T00:10:58;21.02;;;15.20;;
23290;SDS011;11814;44.686;10.842;2024-03-08T00:13:24;24.75;;;15.52;;
23290;SDS011;11814;44.686;10.842;2024-03-08T00:15:50;21.40;;;15.38;;
23290;SDS011;11814;44.686;10.842;2024-03-08T00:18:16;21.80;;;14.30;;
23290;SDS011;11814;44.686;10.842;2024-03-08T00:20:41;23.13;;;14.65;;
23290;SDS011;11814;44.686;10.842;2024-03-08T00:23:07;20.27;;;14.30;;
23290;SDS011;11814;44.686;10.842;2024-03-08T00:25:33;25.25;;;16.23;;
23290;SDS011;11814;44.686;10.842;2024-03-08T00:27:59;25.23;;;16.35;;
23290;SDS011;11814;44.686;10.842;2024-03-08T00:30:27;25.95;;;16.35;;
23290;SDS011;11814;44.686;10.842;2024-03-08T00:32:53;30.50;;;17.83;;
23290;SDS011;11814;44.686;10.842;2024-03-08T00:35:18;27.83;;;18.60;;
23290;SDS011;11814;44.686;10.842;2024-03-08T00:37:44;28.77;;;18.60;;
23290;SDS011;11814;44.686;10.842;2024-03-08T00:40:12;31.10;;;19.77;;
23290;SDS011;11814;44.686;10.842;2024-03-08T00:42:38;31.38;;;18.08;;
23290;SDS011;11814;44.686;10.842;2024-03-08T00:45:06;24.08;;;16.67;;
23290;SDS011;11814;44.686;10.842;2024-03-08T00:47:32;29.90;;;16.80;;
23290;SDS011;11814;44.686;10.842;2024-03-08T00:49:58;25.25;;;17.20;;
23290;SDS011;11814;44.686;10.842;2024-03-08T00:52:24;26.27;;;16.45;;
23290;SDS011;11814;44.686;10.842;2024-03-08T00:54:50;29.77;;;18.73;;
23290;SDS011;11814;44.686;10.842;2024-03-08T00:57:15;29.70;;;17.85;;
23290;SDS011;11814;44.686;10.842;2024-03-08T00:59:41;31.80;;;19.08;;
23290;SDS011;11814;44.686;10.842;2024-03-08T01:02:07;29.48;;;16.85;;
23290;SDS011;11814;44.686;10.842;2024-03-08T01:04:34;27.40;;;18.10;;
23290;SDS011;11814;44.686;10.842;2024-03-08T01:07:00;25.70;;;18.48;;
23290;SDS011;11814;44.686;10.842;2024-03-08T01:09:26;26.42;;;17.83;;
23290;SDS011;11814;44.686;10.842;2024-03-08T01:11:52;26.23;;;18.27;;
23290;SDS011;11814;44.686;10.842;2024-03-08T01:14:22;27.98;;;18.77;;
23290;SDS011;11814;44.686;10.842;2024-03-08T01:16:51;29.40;;;18.52;;
23290;SDS011;11814;44.686;10.842;2024-03-08T01:19:16;27.65;;;19.15;;
23290;SDS011;11814;44.686;10.842;2024-03-08T01:21:42;31.77;;;19.42;;
23290;SDS011;11814;44.686;10.842;2024-03-08T01:24:08;31.70;;;19.73;;
23290;SDS011;11814;44.686;10.842;2024-03-08T01:26:34;28.88;;;20.05;;
23290;SDS011;11814;44.686;10.842;2024-03-08T01:29:00;28.40;;;19.95;;
23290;SDS011;11814;44.686;10.842;2024-03-08T01:31:28;28.38;;;19.00;;
23290;SDS011;11814;44.686;10.842;2024-03-08T01:33:55;32.25;;;20.83;;
23290;SDS011;11814;44.686;10.842;2024-03-08T01:36:21;29.15;;;20.48;;
23290;SDS011;11814;44.686;10.842;2024-03-08T01:38:46;32.20;;;20.33;;
23290;SDS011;11814;44.686;10.842;2024-03-08T01:41:12;32.78;;;21.00;;
23290;SDS011;11814;44.686;10.842;2024-03-08T01:43:38;31.08;;;21.95;;
23290;SDS011;11814;44.686;10.842;2024-03-08T01:46:04;35.20;;;23.02;;
23290;SDS011;11814;44.686;10.842;2024-03-08T01:48:31;31.85;;;22.70;;
23290;SDS011;11814;44.686;10.842;2024-03-08T01:50:57;36.47;;;22.38;;
23290;SDS011;11814;44.686;10.842;2024-03-08T01:53:26;34.08;;;22.23;;
23290;SDS011;11814;44.686;10.842;2024-03-08T01:55:56;33.50;;;21.55;;
23290;SDS011;11814;44.686;10.842;2024-03-08T01:58:23;33.13;;;22.00;;
23290;SDS011;11814;44.686;10.842;2024-03-08T02:00:49;36.17;;;22.90;;
23290;SDS011;11814;44.686;10.842;2024-03-08T02:03:17;35.92;;;22.98;;
23290;SDS011;11814;44.686;10.842;2024-03-08T02:05:44;35.45;;;23.23;;
23290;SDS011;11814;44.686;10.842;2024-03-08T02:08:09;38.30;;;24.35;;
23290;SDS011;11814;44.686;10.842;2024-03-08T02:10:41;34.60;;;23.83;;
23290;SDS011;11814;44.686;10.842;2024-03-08T02:13:08;32.60;;;21.02;;
23290;SDS011;11814;44.686;10.842;2024-03-08T02:18:33;29.20;;;20.45;;
23290;SDS011;11814;44.686;10.842;2024-03-08T02:20:59;30.20;;;21.17;;
23290;SDS011;11814;44.686;10.842;2024-03-08T02:23:29;32.42;;;21.02;;
23290;SDS011;11814;44.686;10.842;2024-03-08T02:25:55;32.58;;;21.30;;
23290;SDS011;11814;44.686;10.842;2024-03-08T02:28:21;33.33;;;22.02;;
23290;SDS011;11814;44.686;10.842;2024-03-08T02:30:51;28.42;;;19.60;;
23290;SDS011;11814;44.686;10.842;2024-03-08T02:33:20;32.78;;;20.88;;
23290;SDS011;11814;44.686;10.842;2024-03-08T02:35:48;33.40;;;21.50;;
23290;SDS011;11814;44.686;10.842;2024-03-08T02:38:14;30.20;;;20.90;;
23290;SDS011;11814;44.686;10.842;2024-03-08T02:40:47;34.50;;;22.55;;
23290;SDS011;11814;44.686;10.842;2024-03-08T02:43:14;32.53;;;22.13;;
23290;SDS011;11814;44.686;10.842;2024-03-08T02:45:41;31.40;;;20.83;;
23290;SDS011;11814;44.686;10.842;2024-03-08T02:48:07;30.55;;;21.25;;
23290;SDS011;11814;44.686;10.842;2024-03-08T02:50:33;33.42;;;22.58;;
23290;SDS011;11814;44.686;10.842;2024-03-08T02:53:02;31.65;;;20.60;;
23290;SDS011;11814;44.686;10.842;2024-03-08T02:55:28;29.90;;;19.85;;
23290;SDS011;11814;44.686;10.842;2024-03-08T02:57:54;32.10;;;22.20;;
23290;SDS011;11814;44.686;10.842;2024-03-08T03:00:21;32.25;;;21.00;;
23290;SDS011;11814;44.686;10.842;2024-03-08T03:02:48;33.00;;;21.25;;
23290;SDS011;11814;44.686;10.842;2024-03-08T03:05:17;31.20;;;20.90;;
23290;SDS011;11814;44.686;10.842;2024-03-08T03:07:42;26.05;;;18.27;;
23290;SDS011;11814;44.686;10.842;2024-03-08T03:10:08;31.85;;;19.00;;
23290;SDS011;11814;44.686;10.842;2024-03-08T03:12:34;25.73;;;18.45;;
23290;SDS011;11814;44.686;10.842;2024-03-08T03:14:59;33.17;;;20.65;;
23290;SDS011;11814;44.686;10.842;2024-03-08T03:17:25;32.95;;;20.70;;
23290;SDS011;11814;44.686;10.842;2024-03-08T03:19:54;31.33;;;20.70;;
23290;SDS011;11814;44.686;10.842;2024-03-08T03:22:20;31.25;;;21.77;;
23290;SDS011;11814;44.686;10.842;2024-03-08T03:24:46;35.13;;;24.05;;
23290;SDS011;11814;44.686;10.842;2024-03-08T03:27:12;40.38;;;25.30;;
23290;SDS011;11814;44.686;10.842;2024-03-08T03:29:40;39.50;;;23.98;;
23290;SDS011;11814;44.686;10.842;2024-03-08T03:32:13;38.08;;;24.95;;
23290;SDS011;11814;44.686;10.842;2024-03-08T03:34:40;41.10;;;25.13;;
23290;SDS011;11814;44.686;10.842;2024-03-08T03:37:07;38.58;;;25.77;;
23290;SDS011;11814;44.686;10.842;2024-03-08T03:39:39;36.80;;;23.63;;
23290;SDS011;11814;44.686;10.842;2024-03-08T03:42:17;36.15;;;24.00;;
23290;SDS011;11814;44.686;10.842;2024-03-08T03:44:46;43.13;;;25.60;;
23290;SDS011;11814;44.686;10.842;2024-03-08T03:47:13;41.58;;;24.58;;
23290;SDS011;11814;44.686;10.842;2024-03-08T03:49:39;38.10;;;25.48;;
23290;SDS011;11814;44.686;10.842;2024-03-08T03:52:08;37.50;;;24.38;;
23290;SDS011;11814;44.686;10.842;2024-03-08T03:54:37;42.65;;;27.77;;
23290;SDS011;11814;44.686;10.842;2024-03-08T03:57:03;36.58;;;24.08;;
23290;SDS011;11814;44.686;10.842;2024-03-08T03:59:29;43.72;;;27.08;;
23290;SDS011;11814;44.686;10.842;2024-03-08T04:01:56;44.45;;;27.85;;
23290;SDS011;11814;44.686;10.842;2024-03-08T04:04:22;39.63;;;25.48;;
23290;SDS011;11814;44.686;10.842;2024-03-08T04:06:49;36.22;;;23.50;;
23290;SDS011;11814;44.686;10.842;2024-03-08T04:09:16;35.92;;;23.27;;
23290;SDS011;11814;44.686;10.842;2024-03-08T04:11:47;35.53;;;24.35;;
23290;SDS011;11814;44.686;10.842;2024-03-08T04:14:13;36.13;;;24.33;;
23290;SDS011;11814;44.686;10.842;2024-03-08T04:16:38;37.67;;;25.40;;
23290;SDS011;11814;44.686;10.842;2024-03-08T04:19:04;35.42;;;24.67;;
23290;SDS011;11814;44.686;10.842;2024-03-08T04:21:30;41.78;;;25.70;;
23290;SDS011;11814;44.686;10.842;2024-03-08T04:23:55;39.97;;;25.92;;
23290;SDS011;11814;44.686;10.842;2024-03-08T04:26:21;42.58;;;27.45;;
23290;SDS011;11814;44.686;10.842;2024-03-08T04:28:47;42.50;;;26.55;;
23290;SDS011;11814;44.686;10.842;2024-03-08T04:31:13;42.22;;;26.65;;
23290;SDS011;11814;44.686;10.842;2024-03-08T04:33:38;37.72;;;24.95;;
23290;SDS011;11814;44.686;10.842;2024-03-08T04:36:04;43.20;;;27.50;;
23290;SDS011;11814;44.686;10.842;2024-03-08T04:38:30;42.05;;;25.98;;
23290;SDS011;11814;44.686;10.842;2024-03-08T04:40:56;41.65;;;26.58;;
23290;SDS011;11814;44.686;10.842;2024-03-08T04:43:23;43.45;;;26.65;;
23290;SDS011;11814;44.686;10.842;2024-03-08T04:45:51;48.08;;;30.65;;
23290;SDS011;11814;44.686;10.842;2024-03-08T04:48:18;49.67;;;31.08;;
23290;SDS011;11814;44.686;10.842;2024-03-08T04:50:45;56.80;;;35.78;;
23290;SDS011;11814;44.686;10.842;2024-03-08T04:53:11;54.80;;;34.45;;
23290;SDS011;11814;44.686;10.842;2024-03-08T04:55:36;58.78;;;36.08;;
23290;SDS011;11814;44.686;10.842;2024-03-08T04:58:02;59.60;;;36.28;;
23290;SDS011;11814;44.686;10.842;2024-03-08T05:00:30;64.45;;;37.85;;
23290;SDS011;11814;44.686;10.842;2024-03-08T05:02:57;65.75;;;39.25;;
23290;SDS011;11814;44.686;10.842;2024-03-08T05:05:23;60.80;;;36.90;;
23290;SDS011;11814;44.686;10.842;2024-03-08T05:07:49;57.85;;;35.80;;
23290;SDS011;11814;44.686;10.842;2024-03-08T05:10:15;52.92;;;33.80;;
23290;SDS011;11814;44.686;10.842;2024-03-08T05:12:42;57.35;;;35.60;;
23290;SDS011;11814;44.686;10.842;2024-03-08T05:15:08;63.78;;;38.00;;
23290;SDS011;11814;44.686;10.842;2024-03-08T05:17:34;60.90;;;37.53;;
23290;SDS011;11814;44.686;10.842;2024-03-08T05:20:00;60.92;;;37.22;;
23290;SDS011;11814;44.686;10.842;2024-03-08T05:22:26;62.00;;;38.50;;
23290;SDS011;11814;44.686;10.842;2024-03-08T05:24:51;62.83;;;38.58;;
23290;SDS011;11814;44.686;10.842;2024-03-08T05:27:17;66.60;;;40.05;;
23290;SDS011;11814;44.686;10.842;2024-03-08T05:29:43;60.65;;;36.88;;
23290;SDS011;11814;44.686;10.842;2024-03-08T05:32:08;63.95;;;38.58;;
23290;SDS011;11814;44.686;10.842;2024-03-08T05:34:37;70.22;;;41.63;;
23290;SDS011;11814;44.686;10.842;2024-03-08T05:37:02;73.93;;;42.05;;
23290;SDS011;11814;44.686;10.842;2024-03-08T05:39:28;70.88;;;41.88;;
23290;SDS011;11814;44.686;10.842;2024-03-08T05:41:54;81.97;;;44.47;;
23290;SDS011;11814;44.686;10.842;2024-03-08T05:44:21;62.55;;;38.97;;
23290;SDS011;11814;44.686;10.842;2024-03-08T05:46:46;73.85;;;41.30;;
23290;SDS011;11814;44.686;10.842;2024-03-08T05:49:12;64.05;;;39.05;;
23290;SDS011;11814;44.686;10.842;2024-03-08T05:51:38;62.78;;;37.95;;
23290;SDS011;11814;44.686;10.842;2024-03-08T05:54:05;68.03;;;40.42;;
23290;SDS011;11814;44.686;10.842;2024-03-08T05:56:34;70.53;;;42.33;;
23290;SDS011;11814;44.686;10.842;2024-03-08T05:59:00;61.95;;;38.83;;
23290;SDS011;11814;44.686;10.842;2024-03-08T06:01:27;63.03;;;38.90;;
23290;SDS011;11814;44.686;10.842;2024-03-08T06:03:53;67.20;;;39.72;;
23290;SDS011;11814;44.686;10.842;2024-03-08T06:06:21;71.40;;;42.00;;
23290;SDS011;11814;44.686;10.842;2024-03-08T06:08:47;69.38;;;41.13;;
23290;SDS011;11814;44.686;10.842;2024-03-08T06:11:16;68.57;;;38.20;;
23290;SDS011;11814;44.686;10.842;2024-03-08T06:13:43;59.35;;;35.83;;
23290;SDS011;11814;44.686;10.842;2024-03-08T06:16:09;54.15;;;35.28;;
23290;SDS011;11814;44.686;10.842;2024-03-08T06:18:35;56.33;;;36.13;;
23290;SDS011;11814;44.686;10.842;2024-03-08T06:21:07;53.95;;;35.80;;
23290;SDS011;11814;44.686;10.842;2024-03-08T06:23:37;54.80;;;35.67;;
23290;SDS011;11814;44.686;10.842;2024-03-08T06:26:05;54.63;;;35.45;;
23290;SDS011;11814;44.686;10.842;2024-03-08T06:28:31;50.95;;;33.45;;
23290;SDS011;11814;44.686;10.842;2024-03-08T06:30:58;45.15;;;32.22;;
23290;SDS011;11814;44.686;10.842;2024-03-08T06:33:24;52.15;;;33.22;;
23290;SDS011;11814;44.686;10.842;2024-03-08T06:35:51;50.83;;;35.20;;
23290;SDS011;11814;44.686;10.842;2024-03-08T06:38:25;54.67;;;33.72;;
23290;SDS011;11814;44.686;10.842;2024-03-08T06:40:52;54.97;;;35.80;;
23290;SDS011;11814;44.686;10.842;2024-03-08T06:43:18;49.95;;;33.03;;
23290;SDS011;11814;44.686;10.842;2024-03-08T06:45:44;53.95;;;34.05;;
23290;SDS011;11814;44.686;10.842;2024-03-08T06:48:16;45.92;;;30.98;;
23290;SDS011;11814;44.686;10.842;2024-03-08T06:50:43;46.22;;;31.70;;
23290;SDS011;11814;44.686;10.842;2024-03-08T06:53:10;44.75;;;30.02;;
23290;SDS011;11814;44.686;10.842;2024-03-08T06:55:36;43.45;;;29.92;;
23290;SDS011;11814;44.686;10.842;2024-03-08T06:58:02;43.22;;;29.80;;
23290;SDS011;11814;44.686;10.842;2024-03-08T07:00:28;47.25;;;30.50;;
23290;SDS011;11814;44.686;10.842;2024-03-08T07:02:55;51.22;;;31.83;;
23290;SDS011;11814;44.686;10.842;2024-03-08T07:05:22;46.50;;;31.35;;
23290;SDS011;11814;44.686;10.842;2024-03-08T07:07:49;50.35;;;32.10;;
23290;SDS011;11814;44.686;10.842;2024-03-08T07:10:16;44.85;;;30.35;;
23290;SDS011;11814;44.686;10.842;2024-03-08T07:12:41;43.30;;;30.65;;
23290;SDS011;11814;44.686;10.842;2024-03-08T07:15:07;49.30;;;31.73;;
23290;SDS011;11814;44.686;10.842;2024-03-08T07:17:38;46.85;;;31.73;;
23290;SDS011;11814;44.686;10.842;2024-03-08T07:20:04;46.85;;;30.10;;
23290;SDS011;11814;44.686;10.842;2024-03-08T07:22:35;48.47;;;29.20;;
23290;SDS011;11814;44.686;10.842;2024-03-08T07:25:02;44.88;;;29.73;;
23290;SDS011;11814;44.686;10.842;2024-03-08T07:27:49;45.28;;;29.23;;
23290;SDS011;11814;44.686;10.842;2024-03-08T07:30:16;41.00;;;29.17;;
23290;SDS011;11814;44.686;10.842;2024-03-08T07:33:02;42.67;;;29.77;;
23290;SDS011;11814;44.686;10.842;2024-03-08T07:35:29;45.90;;;30.63;;
23290;SDS011;11814;44.686;10.842;2024-03-08T07:37:55;44.28;;;29.27;;
23290;SDS011;11814;44.686;10.842;2024-03-08T07:40:21;43.42;;;29.02;;
23290;SDS011;11814;44.686;10.842;2024-03-08T07:42:48;42.33;;;28.17;;
23290;SDS011;11814;44.686;10.842;2024-03-08T07:45:17;39.80;;;28.02;;
23290;SDS011;11814;44.686;10.842;2024-03-08T07:47:43;42.80;;;28.48;;
23290;SDS011;11814;44.686;10.842;2024-03-08T07:50:09;40.25;;;28.05;;
23290;SDS011;11814;44.686;10.842;2024-03-08T07:52:35;42.15;;;27.42;;
23290;SDS011;11814;44.686;10.842;2024-03-08T07:55:01;37.20;;;26.80;;
23290;SDS011;11814;44.686;10.842;2024-03-08T07:57:28;41.88;;;28.02;;
23290;SDS011;11814;44.686;10.842;2024-03-08T07:59:55;36.55;;;26.85;;
23290;SDS011;11814;44.686;10.842;2024-03-08T08:02:20;42.05;;;27.90;;
23290;SDS011;11814;44.686;10.842;2024-03-08T08:04:46;43.25;;;28.05;;
23290;SDS011;11814;44.686;10.842;2024-03-08T08:07:12;41.72;;;29.25;;
23290;SDS011;11814;44.686;10.842;2024-03-08T08:09:39;44.05;;;28.42;;
23290;SDS011;11814;44.686;10.842;2024-03-08T08:12:05;38.60;;;26.42;;
23290;SDS011;11814;44.686;10.842;2024-03-08T08:14:32;40.97;;;28.13;;
23290;SDS011;11814;44.686;10.842;2024-03-08T08:16:57;42.22;;;27.65;;
23290;SDS011;11814;44.686;10.842;2024-03-08T08:19:28;42.47;;;27.35;;
23290;SDS011;11814;44.686;10.842;2024-03-08T08:21:56;44.25;;;27.33;;
23290;SDS011;11814;44.686;10.842;2024-03-08T08:24:28;39.05;;;27.17;;
23290;SDS011;11814;44.686;10.842;2024-03-08T08:26:53;42.08;;;28.45;;
23290;SDS011;11814;44.686;10.842;2024-03-08T08:29:19;38.00;;;27.80;;
23290;SDS011;11814;44.686;10.842;2024-03-08T08:31:45;41.67;;;27.67;;
23290;SDS011;11814;44.686;10.842;2024-03-08T08:34:12;37.70;;;27.40;;
23290;SDS011;11814;44.686;10.842;2024-03-08T08:36:38;38.10;;;25.73;;
23290;SDS011;11814;44.686;10.842;2024-03-08T08:39:04;34.75;;;25.70;;
23290;SDS011;11814;44.686;10.842;2024-03-08T08:41:37;38.60;;;26.58;;
23290;SDS011;11814;44.686;10.842;2024-03-08T08:44:03;34.78;;;25.88;;
23290;SDS011;11814;44.686;10.842;2024-03-08T08:46:28;37.13;;;25.63;;
23290;SDS011;11814;44.686;10.842;2024-03-08T08:48:54;37.67;;;26.02;;
23290;SDS011;11814;44.686;10.842;2024-03-08T08:51:20;34.03;;;25.45;;
23290;SDS011;11814;44.686;10.842;2024-03-08T08:53:45;35.42;;;26.10;;
23290;SDS011;11814;44.686;10.842;2024-03-08T08:56:13;34.17;;;24.63;;
23290;SDS011;11814;44.686;10.842;2024-03-08T08:58:39;36.45;;;24.13;;
23290;SDS011;11814;44.686;10.842;2024-03-08T09:01:07;38.42;;;25.75;;
23290;SDS011;11814;44.686;10.842;2024-03-08T09:03:36;34.30;;;24.40;;
23290;SDS011;11814;44.686;10.842;2024-03-08T09:06:03;37.13;;;25.05;;
23290;SDS011;11814;44.686;10.842;2024-03-08T09:08:29;37.03;;;26.50;;
23290;SDS011;11814;44.686;10.842;2024-03-08T09:10:55;38.97;;;27.83;;
23290;SDS011;11814;44.686;10.842;2024-03-08T09:13:21;39.67;;;28.60;;
23290;SDS011;11814;44.686;10.842;2024-03-08T09:15:47;40.88;;;28.55;;
23290;SDS011;11814;44.686;10.842;2024-03-08T09:18:12;40.63;;;28.80;;
23290;SDS011;11814;44.686;10.842;2024-03-08T09:20:38;40.72;;;28.10;;
23290;SDS011;11814;44.686;10.842;2024-03-08T09:23:06;40.92;;;28.27;;
23290;SDS011;11814;44.686;10.842;2024-03-08T09:25:33;45.42;;;30.70;;
23290;SDS011;11814;44.686;10.842;2024-03-08T09:27:58;43.75;;;29.60;;
23290;SDS011;11814;44.686;10.842;2024-03-08T09:30:24;42.42;;;30.42;;
23290;SDS011;11814;44.686;10.842;2024-03-08T09:32:49;41.63;;;28.33;;
23290;SDS011;11814;44.686;10.842;2024-03-08T09:35:16;40.53;;;28.80;;
23290;SDS011;11814;44.686;10.842;2024-03-08T09:37:41;42.30;;;28.75;;
23290;SDS011;11814;44.686;10.842;2024-03-08T09:40:07;38.90;;;27.88;;
23290;SDS011;11814;44.686;10.842;2024-03-08T09:42:40;38.83;;;27.95;;
23290;SDS011;11814;44.686;10.842;2024-03-08T09:45:10;39.22;;;28.13;;
23290;SDS011;11814;44.686;10.842;2024-03-08T09:47:40;38.42;;;27.48;;
23290;SDS011;11814;44.686;10.842;2024-03-08T09:50:07;39.42;;;28.77;;
23290;SDS011;11814;44.686;10.842;2024-03-08T09:52:47;40.13;;;29.10;;
23290;SDS011;11814;44.686;10.842;2024-03-08T09:55:14;36.05;;;27.58;;
23290;SDS011;11814;44.686;10.842;2024-03-08T09:57:42;44.70;;;29.15;;
23290;SDS011;11814;44.686;10.842;2024-03-08T10:00:27;38.53;;;26.55;;
23290;SDS011;11814;44.686;10.842;2024-03-08T10:02:53;36.00;;;25.55;;
23290;SDS011;11814;44.686;10.842;2024-03-08T10:05:18;35.95;;;26.05;;
23290;SDS011;11814;44.686;10.842;2024-03-08T10:07:46;28.17;;;22.80;;
23290;SDS011;11814;44.686;10.842;2024-03-08T10:10:12;33.78;;;23.27;;
23290;SDS011;11814;44.686;10.842;2024-03-08T10:12:38;30.63;;;22.48;;
23290;SDS011;11814;44.686;10.842;2024-03-08T10:15:07;25.88;;;19.60;;
23290;SDS011;11814;44.686;10.842;2024-03-08T10:17:36;27.17;;;21.02;;
23290;SDS011;11814;44.686;10.842;2024-03-08T10:20:01;27.50;;;18.98;;
23290;SDS011;11814;44.686;10.842;2024-03-08T10:22:28;21.98;;;16.73;;
23290;SDS011;11814;44.686;10.842;2024-03-08T10:24:55;20.92;;;15.23;;
23290;SDS011;11814;44.686;10.842;2024-03-08T10:27:20;23.67;;;17.58;;
23290;SDS011;11814;44.686;10.842;2024-03-08T10:29:49;19.05;;;16.45;;
23290;SDS011;11814;44.686;10.842;2024-03-08T10:32:16;16.77;;;14.90;;
23290;SDS011;11814;44.686;10.842;2024-03-08T10:34:42;15.73;;;13.68;;
23290;SDS011;11814;44.686;10.842;2024-03-08T10:37:11;18.42;;;14.45;;
23290;SDS011;11814;44.686;10.842;2024-03-08T10:39:42;22.83;;;14.55;;
23290;SDS011;11814;44.686;10.842;2024-03-08T10:42:17;15.45;;;12.05;;
23290;SDS011;11814;44.686;10.842;2024-03-08T10:44:53;17.13;;;11.77;;
23290;SDS011;11814;44.686;10.842;2024-03-08T10:47:31;13.70;;;11.77;;
23290;SDS011;11814;44.686;10.842;2024-03-08T10:50:19;13.27;;;11.85;;
23290;SDS011;11814;44.686;10.842;2024-03-08T10:52:50;13.15;;;10.90;;
23290;SDS011;11814;44.686;10.842;2024-03-08T10:55:19;15.70;;;9.32;;
23290;SDS011;11814;44.686;10.842;2024-03-08T10:57:45;11.68;;;9.90;;
23290;SDS011;11814;44.686;10.842;2024-03-08T11:00:14;12.73;;;9.18;;
23290;SDS011;11814;44.686;10.842;2024-03-08T11:02:44;12.65;;;9.85;;
23290;SDS011;11814;44.686;10.842;2024-03-08T11:05:10;16.25;;;10.10;;
23290;SDS011;11814;44.686;10.842;2024-03-08T11:07:42;12.38;;;9.80;;
23290;SDS011;11814;44.686;10.842;2024-03-08T11:10:18;12.75;;;9.82;;
23290;SDS011;11814;44.686;10.842;2024-03-08T11:12:44;12.30;;;9.10;;
23290;SDS011;11814;44.686;10.842;2024-03-08T11:15:13;10.60;;;9.00;;
23290;SDS011;11814;44.686;10.842;2024-03-08T11:20:12;9.35;;;7.85;;
23290;SDS011;11814;44.686;10.842;2024-03-08T11:22:51;12.57;;;8.73;;
23290;SDS011;11814;44.686;10.842;2024-03-08T11:25:34;14.25;;;9.52;;
23290;SDS011;11814;44.686;10.842;2024-03-08T11:30:43;12.88;;;9.45;;
23290;SDS011;11814;44.686;10.842;2024-03-08T11:33:13;11.10;;;9.52;;
23290;SDS011;11814;44.686;10.842;2024-03-08T11:35:41;12.07;;;9.35;;
23290;SDS011;11814;44.686;10.842;2024-03-08T11:38:08;12.45;;;9.43;;
23290;SDS011;11814;44.686;10.842;2024-03-08T11:40:34;14.65;;;10.02;;
23290;SDS011;11814;44.686;10.842;2024-03-08T11:43:00;13.50;;;9.60;;
23290;SDS011;11814;44.686;10.842;2024-03-08T11:45:32;13.13;;;8.73;;
23290;SDS011;11814;44.686;10.842;2024-03-08T11:48:01;20.83;;;9.77;;
23290;SDS011;11814;44.686;10.842;2024-03-08T11:50:30;14.02;;;10.13;;
23290;SDS011;11814;44.686;10.842;2024-03-08T11:53:00;15.80;;;9.77;;
23290;SDS011;11814;44.686;10.842;2024-03-08T11:55:27;18.35;;;10.75;;
23290;SDS011;11814;44.686;10.842;2024-03-08T11:58:01;15.15;;;10.85;;
23290;SDS011;11814;44.686;10.842;2024-03-08T12:00:27;12.65;;;10.40;;
23290;SDS011;11814;44.686;10.842;2024-03-08T12:03:03;13.93;;;10.55;;
23290;SDS011;11814;44.686;10.842;2024-03-08T12:05:34;13.45;;;10.48;;
23290;SDS011;11814;44.686;10.842;2024-03-08T12:08:01;13.60;;;10.45;;
23290;SDS011;11814;44.686;10.842;2024-03-08T12:10:27;11.02;;;9.60;;
23290;SDS011;11814;44.686;10.842;2024-03-08T12:12:54;12.98;;;9.70;;
23290;SDS011;11814;44.686;10.842;2024-03-08T12:15:24;14.40;;;10.35;;
23290;SDS011;11814;44.686;10.842;2024-03-08T12:17:51;13.68;;;10.20;;
23290;SDS011;11814;44.686;10.842;2024-03-08T12:20:27;11.23;;;9.38;;
23290;SDS011;11814;44.686;10.842;2024-03-08T12:22:55;17.35;;;10.77;;
23290;SDS011;11814;44.686;10.842;2024-03-08T12:25:26;21.73;;;10.88;;
23290;SDS011;11814;44.686;10.842;2024-03-08T12:27:55;15.43;;;10.23;;
23290;SDS011;11814;44.686;10.842;2024-03-08T12:30:23;14.40;;;11.07;;
23290;SDS011;11814;44.686;10.842;2024-03-08T12:35:22;15.35;;;10.55;;
23290;SDS011;11814;44.686;10.842;2024-03-08T12:37:50;16.70;;;11.15;;
23290;SDS011;11814;44.686;10.842;2024-03-08T12:40:18;13.27;;;10.10;;
23290;SDS011;11814;44.686;10.842;2024-03-08T12:42:44;15.70;;;10.68;;
23290;SDS011;11814;44.686;10.842;2024-03-08T12:45:12;13.77;;;10.32;;
23290;SDS011;11814;44.686;10.842;2024-03-08T12:47:39;14.85;;;10.68;;
23290;SDS011;11814;44.686;10.842;2024-03-08T12:50:07;13.48;;;10.63;;
23290;SDS011;11814;44.686;10.842;2024-03-08T12:52:35;15.15;;;10.43;;
23290;SDS011;11814;44.686;10.842;2024-03-08T12:55:01;14.52;;;10.60;;
23290;SDS011;11814;44.686;10.842;2024-03-08T12:57:28;12.80;;;10.27;;
23290;SDS011;11814;44.686;10.842;2024-03-08T12:59:54;15.95;;;10.85;;
23290;SDS011;11814;44.686;10.842;2024-03-08T13:02:19;15.27;;;10.85;;
23290;SDS011;11814;44.686;10.842;2024-03-08T13:04:46;17.23;;;11.23;;
23290;SDS011;11814;44.686;10.842;2024-03-08T13:07:20;15.35;;;11.13;;
23290;SDS011;11814;44.686;10.842;2024-03-08T13:09:46;16.55;;;11.48;;
23290;SDS011;11814;44.686;10.842;2024-03-08T13:12:12;17.67;;;11.02;;
23290;SDS011;11814;44.686;10.842;2024-03-08T13:14:40;14.75;;;11.00;;
23290;SDS011;11814;44.686;10.842;2024-03-08T13:17:05;16.15;;;11.43;;
23290;SDS011;11814;44.686;10.842;2024-03-08T13:19:35;14.70;;;11.18;;
23290;SDS011;11814;44.686;10.842;2024-03-08T13:22:03;15.20;;;12.07;;
23290;SDS011;11814;44.686;10.842;2024-03-08T13:24:32;15.23;;;12.23;;
23290;SDS011;11814;44.686;10.842;2024-03-08T13:26:58;13.70;;;11.68;;
23290;SDS011;11814;44.686;10.842;2024-03-08T13:29:25;15.20;;;11.18;;
23290;SDS011;11814;44.686;10.842;2024-03-08T13:31:50;17.35;;;12.20;;
23290;SDS011;11814;44.686;10.842;2024-03-08T13:34:18;13.65;;;11.77;;
23290;SDS011;11814;44.686;10.842;2024-03-08T13:36:44;14.30;;;11.57;;
23290;SDS011;11814;44.686;10.842;2024-03-08T13:39:11;15.27;;;12.45;;
23290;SDS011;11814;44.686;10.842;2024-03-08T13:41:43;17.67;;;12.75;;
23290;SDS011;11814;44.686;10.842;2024-03-08T13:44:09;16.30;;;12.43;;
23290;SDS011;11814;44.686;10.842;2024-03-08T13:46:35;17.17;;;12.25;;
23290;SDS011;11814;44.686;10.842;2024-03-08T13:49:05;17.30;;;12.98;;
23290;SDS011;11814;44.686;10.842;2024-03-08T13:51:33;13.25;;;10.85;;
23290;SDS011;11814;44.686;10.842;2024-03-08T13:53:59;15.00;;;12.23;;
23290;SDS011;11814;44.686;10.842;2024-03-08T13:56:25;15.30;;;12.52;;
23290;SDS011;11814;44.686;10.842;2024-03-08T13:58:52;16.75;;;12.02;;
23290;SDS011;11814;44.686;10.842;2024-03-08T14:01:18;15.05;;;11.85;;
23290;SDS011;11814;44.686;10.842;2024-03-08T14:03:43;17.25;;;12.07;;
23290;SDS011;11814;44.686;10.842;2024-03-08T14:06:09;15.40;;;11.50;;
23290;SDS011;11814;44.686;10.842;2024-03-08T14:08:35;15.00;;;11.30;;
23290;SDS011;11814;44.686;10.842;2024-03-08T14:11:04;17.23;;;11.05;;
23290;SDS011;11814;44.686;10.842;2024-03-08T14:13:43;14.65;;;11.50;;
23290;SDS011;11814;44.686;10.842;2024-03-08T14:16:10;17.73;;;11.63;;
23290;SDS011;11814;44.686;10.842;2024-03-08T14:18:36;15.95;;;10.75;;
23290;SDS011;11814;44.686;10.842;2024-03-08T14:21:03;17.13;;;11.82;;